createdAt,value
2022-08-19T06:00:16.435Z,10.35
2022-08-19T06:02:57.851Z,10.55
2022-08-19T06:05:42.187Z,11.02
2022-08-19T06:08:34.329Z,10.65
2022-08-19T06:11:25.423Z,10.57
2022-08-19T06:14:05.014Z,9.95
2022-08-19T06:16:46.283Z,9.38
2022-08-19T06:19:27.544Z,10.88
2022-08-19T06:22:07.603Z,9.93
2022-08-19T06:24:44.824Z,9.35
2022-08-19T06:27:21.704Z,8.45
2022-08-19T06:29:58.898Z,9.13
2022-08-19T06:32:42.693Z,8.95
2022-08-19T06:35:20.059Z,9.05
2022-08-19T06:37:57.018Z,8.75
2022-08-19T06:40:34.364Z,9.25
2022-08-19T06:43:11.135Z,8.82
2022-08-19T06:45:49.129Z,8.82
2022-08-19T06:48:28.822Z,8.07
2022-08-19T06:51:08.656Z,8.73
2022-08-19T06:56:32.334Z,8.35
2022-08-19T06:59:11.813Z,7.93
2022-08-19T07:01:51.801Z,7.50
2022-08-19T07:04:35.417Z,7.82
2022-08-19T07:07:21.192Z,7.60
2022-08-19T07:10:01.046Z,7.68
2022-08-19T07:12:41.255Z,7.85
2022-08-19T07:15:18.835Z,7.38
2022-08-19T07:17:56.087Z,8.23
2022-08-19T07:20:36.145Z,7.82
2022-08-19T07:23:16.185Z,7.80
2022-08-19T07:25:54.128Z,7.60
2022-08-19T07:28:31.908Z,7.50
2022-08-19T07:31:10.318Z,7.70
2022-08-19T07:33:50.527Z,7.50
2022-08-19T07:36:35.490Z,7.60
2022-08-19T07:39:17.257Z,7.82
2022-08-19T07:41:56.747Z,8.35
2022-08-19T07:47:50.318Z,8.05
2022-08-19T07:50:18.066Z,8.23
2022-08-19T07:52:59.157Z,7.63
2022-08-19T07:55:43.545Z,8.18
2022-08-19T07:58:28.648Z,8.32
2022-08-19T08:01:13.133Z,8.02
2022-08-19T08:04:05.643Z,6.93
2022-08-19T08:06:58.959Z,7.60
2022-08-19T08:09:43.436Z,6.88
2022-08-19T08:12:35.183Z,7.10
2022-08-19T08:15:20.141Z,7.10
2022-08-19T08:18:03.137Z,7.22
2022-08-19T08:20:40.188Z,7.80
2022-08-19T08:23:30.605Z,7.13
2022-08-19T08:26:10.939Z,7.45
2022-08-19T08:28:50.778Z,6.88
2022-08-19T08:31:29.640Z,6.90
2022-08-19T08:34:07.008Z,6.78
2022-08-19T08:36:46.358Z,7.28
2022-08-19T08:39:27.691Z,6.93
2022-08-19T08:42:20.699Z,6.18
2022-08-19T08:45:06.874Z,6.05
2022-08-19T08:47:47.903Z,6.55
2022-08-19T08:50:37.328Z,5.82
2022-08-19T08:53:26.270Z,6.10
2022-08-19T08:56:17.006Z,5.82
2022-08-19T08:59:09.881Z,5.82
2022-08-19T09:01:50.285Z,5.55
2022-08-19T09:04:30.407Z,5.60
2022-08-19T09:07:39.934Z,5.50
2022-08-19T09:10:44.385Z,5.00
2022-08-19T09:13:37.607Z,4.70
2022-08-19T09:16:28.273Z,4.82
2022-08-19T09:19:10.108Z,4.80
2022-08-19T09:21:47.267Z,4.75
2022-08-19T09:24:24.496Z,4.90
2022-08-19T09:27:08.459Z,4.90
2022-08-19T09:29:56.177Z,4.53
2022-08-19T09:32:35.818Z,4.68
2022-08-19T09:35:14.190Z,4.75
2022-08-19T09:37:51.392Z,4.57
2022-08-19T09:40:38.259Z,5.07
2022-08-19T09:43:32.918Z,4.68
2022-08-19T09:46:16.825Z,4.45
2022-08-19T09:49:02.930Z,4.55
2022-08-19T09:51:46.838Z,4.60
2022-08-19T09:54:28.546Z,4.80
2022-08-19T09:57:07.700Z,4.60
2022-08-19T09:59:46.209Z,4.70
2022-08-19T10:02:23.454Z,4.75
2022-08-19T10:05:23.064Z,5.15
2022-08-19T10:08:04.471Z,4.85
2022-08-19T10:10:50.416Z,4.45
2022-08-19T10:13:31.316Z,4.43
2022-08-19T10:18:50.449Z,4.50
2022-08-19T10:21:40.506Z,4.25
2022-08-19T10:24:17.883Z,4.32
2022-08-19T10:26:59.071Z,4.70
2022-08-19T10:29:38.577Z,4.55
2022-08-19T10:32:33.946Z,4.47
2022-08-19T10:35:12.944Z,5.10
2022-08-19T10:37:57.647Z,3.95
2022-08-19T10:40:40.029Z,4.10
2022-08-19T10:43:17.690Z,4.88
2022-08-19T10:46:00.588Z,4.40
2022-08-19T10:48:37.970Z,4.55
2022-08-19T10:51:28.980Z,4.30
2022-08-19T10:54:12.550Z,4.05
2022-08-19T10:56:53.602Z,4.80
2022-08-19T10:59:36.157Z,4.38
2022-08-19T11:02:15.897Z,4.65
2022-08-19T11:04:53.148Z,4.20
2022-08-19T11:07:31.632Z,4.45
2022-08-19T11:10:17.195Z,4.53
2022-08-19T11:12:58.158Z,4.32
2022-08-19T11:15:35.348Z,4.35
2022-08-19T11:18:13.535Z,4.53
2022-08-19T11:20:50.988Z,4.13
2022-08-19T11:23:28.177Z,4.30
2022-08-19T11:26:08.219Z,4.35
2022-08-19T11:28:45.990Z,4.38
2022-08-19T11:31:29.006Z,4.70
2022-08-19T11:34:19.481Z,4.82
2022-08-19T11:36:59.497Z,4.18
2022-08-19T11:39:38.341Z,3.92
2022-08-19T11:42:30.328Z,4.30
2022-08-19T11:47:45.098Z,4.47
2022-08-19T11:50:22.518Z,4.05
2022-08-19T11:53:01.499Z,4.38
2022-08-19T11:55:44.353Z,4.45
2022-08-19T11:58:23.869Z,4.75
2022-08-19T12:01:01.498Z,4.22
2022-08-19T12:03:38.496Z,4.22
2022-08-19T12:06:20.369Z,4.13
2022-08-19T12:08:57.219Z,4.38
2022-08-19T12:11:34.900Z,4.03
2022-08-19T12:14:17.799Z,5.55
2022-08-19T12:16:56.047Z,4.43
2022-08-19T12:19:35.729Z,3.85
2022-08-19T12:22:13.788Z,4.43
2022-08-19T12:24:52.119Z,4.22
2022-08-19T12:27:40.223Z,4.15
2022-08-19T12:30:21.187Z,3.92
2022-08-19T12:32:58.612Z,4.30
2022-08-19T12:35:35.779Z,4.28
2022-08-19T12:38:13.338Z,4.50
2022-08-19T12:40:56.011Z,3.95
2022-08-19T12:43:36.060Z,3.92
2022-08-19T12:46:16.976Z,4.28
2022-08-19T12:48:56.231Z,4.20
2022-08-19T12:51:33.250Z,3.90
2022-08-19T12:54:10.671Z,3.92
2022-08-19T12:56:47.573Z,4.43
2022-08-19T12:59:24.959Z,4.15
2022-08-19T13:02:06.726Z,3.95
2022-08-19T13:04:44.741Z,3.67
2022-08-19T13:07:21.822Z,3.85
2022-08-19T13:09:59.091Z,3.85
2022-08-19T13:12:36.074Z,4.40
2022-08-19T13:15:17.621Z,4.28
2022-08-19T13:17:59.722Z,4.50
2022-08-19T13:20:37.241Z,4.03
2022-08-19T13:23:14.751Z,3.97
2022-08-19T13:26:05.100Z,4.07
2022-08-19T13:28:55.124Z,4.07
2022-08-19T13:31:47.534Z,4.38
2022-08-19T13:34:36.475Z,4.10
2022-08-19T13:37:14.079Z,4.15
2022-08-19T13:39:51.575Z,4.03
2022-08-19T13:42:29.075Z,4.53
2022-08-19T13:45:06.309Z,4.03
2022-08-19T13:47:45.751Z,4.35
2022-08-19T13:50:29.011Z,4.22
2022-08-19T13:53:07.191Z,4.00
2022-08-19T13:55:46.004Z,4.55
2022-08-19T13:58:23.581Z,4.20
2022-08-19T14:01:00.596Z,3.88
2022-08-19T14:03:39.659Z,3.92
2022-08-19T14:06:19.769Z,4.22
2022-08-19T14:08:57.091Z,4.30
2022-08-19T14:11:34.031Z,4.30
2022-08-19T14:14:14.535Z,4.38
2022-08-19T14:16:53.552Z,4.05
2022-08-19T14:19:30.695Z,4.57
2022-08-19T14:22:10.743Z,4.53
2022-08-19T14:24:53.761Z,4.45
2022-08-19T14:27:30.910Z,4.18
2022-08-19T14:30:09.817Z,4.03
2022-08-19T14:32:47.558Z,4.53
2022-08-19T14:35:25.415Z,4.38
2022-08-19T14:38:06.210Z,4.30
2022-08-19T14:40:44.035Z,4.20
2022-08-19T14:43:21.097Z,4.22
2022-08-19T14:45:58.356Z,4.25
2022-08-19T14:48:37.696Z,4.50
2022-08-19T14:51:19.641Z,3.80
2022-08-19T14:53:59.758Z,4.60
2022-08-19T14:56:37.127Z,4.00
2022-08-19T14:59:14.198Z,4.80
2022-08-19T15:01:51.490Z,4.40
2022-08-19T15:04:33.287Z,4.00
2022-08-19T15:07:11.587Z,4.47
2022-08-19T15:09:54.827Z,4.90
2022-08-19T15:12:52.084Z,4.88
2022-08-19T15:15:29.497Z,4.13
2022-08-19T15:18:06.687Z,4.07
2022-08-19T15:20:46.593Z,4.95
2022-08-19T15:23:25.087Z,5.07
2022-08-19T15:26:08.349Z,4.63
2022-08-19T15:28:47.378Z,4.65
2022-08-19T15:31:28.865Z,5.25
2022-08-19T15:34:07.161Z,5.00
2022-08-19T15:36:43.989Z,4.95
2022-08-19T15:39:21.729Z,4.72
2022-08-19T15:42:01.751Z,5.10
2022-08-19T15:44:38.957Z,4.95
2022-08-19T15:47:15.987Z,4.38
2022-08-19T15:50:15.102Z,4.70
2022-08-19T15:52:54.526Z,4.60
2022-08-19T15:55:37.710Z,4.72
2022-08-19T15:58:31.228Z,5.55
2022-08-19T16:01:23.533Z,4.90
2022-08-19T16:04:16.205Z,4.72
2022-08-19T16:06:56.460Z,5.20
2022-08-19T16:09:36.790Z,4.85
2022-08-19T16:12:13.964Z,5.15
2022-08-19T16:14:53.873Z,5.07
2022-08-19T16:17:31.396Z,5.32
2022-08-19T16:20:11.388Z,5.00
2022-08-19T16:22:49.513Z,5.05
2022-08-19T16:25:27.997Z,5.25
2022-08-19T16:28:08.252Z,5.20
2022-08-19T16:30:51.025Z,5.45
2022-08-19T16:33:28.567Z,5.43
2022-08-19T16:36:07.201Z,5.40
2022-08-19T16:38:46.767Z,5.20
2022-08-19T16:41:24.548Z,4.93
2022-08-19T16:44:01.667Z,5.30
2022-08-19T16:46:42.638Z,5.13
2022-08-19T16:49:22.640Z,6.40
2022-08-19T16:52:17.795Z,5.70
2022-08-19T16:54:55.370Z,5.53
2022-08-19T16:57:32.566Z,5.55
2022-08-19T17:00:13.348Z,5.32
2022-08-19T17:02:53.546Z,5.45
2022-08-19T17:05:31.617Z,5.30
2022-08-19T17:08:08.880Z,5.32
2022-08-19T17:11:02.122Z,5.78
2022-08-19T17:13:45.113Z,6.30
2022-08-19T17:16:29.812Z,5.60
2022-08-19T17:19:12.167Z,5.60
2022-08-19T17:21:53.708Z,5.40
2022-08-19T17:24:32.653Z,5.65
2022-08-19T17:27:10.828Z,5.60
2022-08-19T17:29:49.287Z,6.10
2022-08-19T17:32:27.528Z,6.10
2022-08-19T17:35:08.129Z,5.78
2022-08-19T17:37:45.318Z,7.03
2022-08-19T17:40:24.086Z,5.95
2022-08-19T17:43:01.652Z,5.78
2022-08-19T17:45:39.020Z,6.00
2022-08-19T17:48:18.372Z,5.97
2022-08-19T17:51:00.274Z,5.93
2022-08-19T17:53:37.513Z,6.35
2022-08-19T17:56:14.820Z,5.53
2022-08-19T17:58:59.925Z,6.35
2022-08-19T18:01:53.156Z,6.20
2022-08-19T18:04:32.721Z,6.00
2022-08-19T18:07:13.589Z,6.65
2022-08-19T18:09:52.971Z,6.07
2022-08-19T18:12:30.141Z,6.20
2022-08-19T18:15:10.303Z,6.47
2022-08-19T18:17:47.642Z,5.97
2022-08-19T18:20:25.102Z,5.75
2022-08-19T18:23:44.355Z,5.68
2022-08-19T18:26:01.727Z,5.75
2022-08-19T18:28:49.569Z,5.90
2022-08-19T18:31:27.438Z,6.00
2022-08-19T18:34:04.721Z,6.32
2022-08-19T18:36:53.584Z,6.57
2022-08-19T18:39:46.077Z,6.85
2022-08-19T18:42:35.887Z,6.78
2022-08-19T18:45:26.315Z,6.25
2022-08-19T18:48:27.547Z,6.38
2022-08-19T18:51:05.423Z,7.00
2022-08-19T18:53:45.680Z,6.82
2022-08-19T18:56:28.637Z,6.30
